sensor_id;sensor_type;location;lat;lon;timestamp;P1;durP1;ratioP1;P2;durP2;ratioP2
34673;SDS011;20879;55.668;37.858;2024-01-06T00:01:48;8.35;;;4.20;;
34673;SDS011;20879;55.668;37.858;2024-01-06T00:06:55;10.13;;;4.28;;
34673;SDS011;20879;55.668;37.858;2024-01-06T00:12:00;15.75;;;5.32;;
34673;SDS011;20879;55.668;37.858;2024-01-06T00:17:11;10.93;;;4.30;;
34673;SDS011;20879;55.668;37.858;2024-01-06T00:22:18;8.77;;;4.40;;
34673;SDS011;20879;55.668;37.858;2024-01-06T00:27:23;8.07;;;3.92;;
34673;SDS011;20879;55.668;37.858;2024-01-06T00:32:34;12.73;;;4.70;;
34673;SDS011;20879;55.668;37.858;2024-01-06T00:37:40;9.68;;;3.75;;
34673;SDS011;20879;55.668;37.858;2024-01-06T00:42:49;9.30;;;4.28;;
34673;SDS011;20879;55.668;37.858;2024-01-06T00:48:09;8.57;;;3.58;;
34673;SDS011;20879;55.668;37.858;2024-01-06T00:53:17;8.30;;;3.50;;
34673;SDS011;20879;55.668;37.858;2024-01-06T00:58:30;11.45;;;4.65;;
34673;SDS011;20879;55.668;37.858;2024-01-06T01:03:41;8.90;;;3.30;;
34673;SDS011;20879;55.668;37.858;2024-01-06T01:08:49;8.73;;;3.75;;
34673;SDS011;20879;55.668;37.858;2024-01-06T01:14:01;11.85;;;4.43;;
34673;SDS011;20879;55.668;37.858;2024-01-06T01:19:15;8.82;;;3.70;;
34673;SDS011;20879;55.668;37.858;2024-01-06T01:24:25;12.70;;;5.00;;
34673;SDS011;20879;55.668;37.858;2024-01-06T01:29:38;10.90;;;3.78;;
34673;SDS011;20879;55.668;37.858;2024-01-06T01:34:47;10.50;;;4.10;;
34673;SDS011;20879;55.668;37.858;2024-01-06T01:39:58;11.30;;;4.13;;
34673;SDS011;20879;55.668;37.858;2024-01-06T01:45:11;6.70;;;3.25;;
34673;SDS011;20879;55.668;37.858;2024-01-06T01:50:20;6.22;;;3.63;;
34673;SDS011;20879;55.668;37.858;2024-01-06T01:55:35;10.15;;;3.63;;
34673;SDS011;20879;55.668;37.858;2024-01-06T02:00:45;12.15;;;4.18;;
34673;SDS011;20879;55.668;37.858;2024-01-06T02:05:55;5.25;;;3.00;;
34673;SDS011;20879;55.668;37.858;2024-01-06T02:11:12;7.72;;;3.75;;
34673;SDS011;20879;55.668;37.858;2024-01-06T02:16:19;9.07;;;4.72;;
34673;SDS011;20879;55.668;37.858;2024-01-06T02:21:33;8.45;;;3.08;;
34673;SDS011;20879;55.668;37.858;2024-01-06T02:26:44;11.32;;;3.63;;
34673;SDS011;20879;55.668;37.858;2024-01-06T02:32:08;6.03;;;3.55;;
34673;SDS011;20879;55.668;37.858;2024-01-06T02:37:13;8.38;;;4.22;;
34673;SDS011;20879;55.668;37.858;2024-01-06T02:42:21;6.00;;;3.15;;
34673;SDS011;20879;55.668;37.858;2024-01-06T02:47:34;11.18;;;4.70;;
34673;SDS011;20879;55.668;37.858;2024-01-06T02:52:42;10.85;;;3.70;;
34673;SDS011;20879;55.668;37.858;2024-01-06T02:57:56;7.22;;;4.20;;
34673;SDS011;20879;55.668;37.858;2024-01-06T03:03:02;12.55;;;4.10;;
34673;SDS011;20879;55.668;37.858;2024-01-06T03:08:08;11.00;;;4.28;;
34673;SDS011;20879;55.668;37.858;2024-01-06T03:13:21;10.43;;;4.07;;
34673;SDS011;20879;55.668;37.858;2024-01-06T03:18:36;8.43;;;4.30;;
34673;SDS011;20879;55.668;37.858;2024-01-06T03:23:56;9.55;;;3.33;;
34673;SDS011;20879;55.668;37.858;2024-01-06T03:29:08;8.45;;;3.85;;
34673;SDS011;20879;55.668;37.858;2024-01-06T03:34:14;11.13;;;4.68;;
34673;SDS011;20879;55.668;37.858;2024-01-06T03:39:25;6.55;;;2.97;;
34673;SDS011;20879;55.668;37.858;2024-01-06T03:44:37;11.10;;;4.22;;
34673;SDS011;20879;55.668;37.858;2024-01-06T03:49:43;7.30;;;3.65;;
34673;SDS011;20879;55.668;37.858;2024-01-06T03:54:54;10.27;;;3.53;;
34673;SDS011;20879;55.668;37.858;2024-01-06T04:00:11;17.50;;;4.70;;
34673;SDS011;20879;55.668;37.858;2024-01-06T04:05:20;10.38;;;4.20;;
34673;SDS011;20879;55.668;37.858;2024-01-06T04:10:26;12.38;;;3.63;;
34673;SDS011;20879;55.668;37.858;2024-01-06T04:15:36;11.18;;;3.95;;
34673;SDS011;20879;55.668;37.858;2024-01-06T04:20:49;7.47;;;3.55;;
34673;SDS011;20879;55.668;37.858;2024-01-06T04:25:56;8.98;;;4.75;;
34673;SDS011;20879;55.668;37.858;2024-01-06T04:31:10;6.32;;;3.33;;
34673;SDS011;20879;55.668;37.858;2024-01-06T04:36:18;9.65;;;3.65;;
34673;SDS011;20879;55.668;37.858;2024-01-06T04:41:32;11.07;;;4.18;;
34673;SDS011;20879;55.668;37.858;2024-01-06T04:46:40;8.50;;;3.55;;
34673;SDS011;20879;55.668;37.858;2024-01-06T04:51:46;11.63;;;4.22;;
34673;SDS011;20879;55.668;37.858;2024-01-06T04:56:53;9.63;;;4.63;;
34673;SDS011;20879;55.668;37.858;2024-01-06T05:02:10;8.70;;;4.35;;
34673;SDS011;20879;55.668;37.858;2024-01-06T05:07:26;10.55;;;4.53;;
34673;SDS011;20879;55.668;37.858;2024-01-06T05:12:31;14.63;;;6.05;;
34673;SDS011;20879;55.668;37.858;2024-01-06T05:17:48;10.77;;;4.45;;
34673;SDS011;20879;55.668;37.858;2024-01-06T05:22:56;12.05;;;4.20;;
34673;SDS011;20879;55.668;37.858;2024-01-06T05:28:02;14.90;;;5.65;;
34673;SDS011;20879;55.668;37.858;2024-01-06T05:33:16;12.30;;;4.50;;
34673;SDS011;20879;55.668;37.858;2024-01-06T05:38:27;4.78;;;2.83;;
34673;SDS011;20879;55.668;37.858;2024-01-06T05:43:34;8.40;;;4.03;;
34673;SDS011;20879;55.668;37.858;2024-01-06T05:48:42;11.73;;;4.47;;
34673;SDS011;20879;55.668;37.858;2024-01-06T05:53:47;13.00;;;5.10;;
34673;SDS011;20879;55.668;37.858;2024-01-06T05:58:55;10.65;;;4.53;;
34673;SDS011;20879;55.668;37.858;2024-01-06T06:04:03;10.10;;;4.25;;
34673;SDS011;20879;55.668;37.858;2024-01-06T06:09:14;11.85;;;4.55;;
34673;SDS011;20879;55.668;37.858;2024-01-06T06:14:19;12.93;;;4.43;;
34673;SDS011;20879;55.668;37.858;2024-01-06T06:19:33;4.80;;;1.92;;
34673;SDS011;20879;55.668;37.858;2024-01-06T06:24:42;6.03;;;3.00;;
34673;SDS011;20879;55.668;37.858;2024-01-06T06:29:53;12.73;;;4.93;;
34673;SDS011;20879;55.668;37.858;2024-01-06T06:35:03;8.40;;;3.40;;
34673;SDS011;20879;55.668;37.858;2024-01-06T06:40:12;5.20;;;2.33;;
34673;SDS011;20879;55.668;37.858;2024-01-06T06:45:17;7.88;;;3.63;;
34673;SDS011;20879;55.668;37.858;2024-01-06T06:50:34;10.20;;;3.75;;
34673;SDS011;20879;55.668;37.858;2024-01-06T06:55:45;10.25;;;4.55;;
34673;SDS011;20879;55.668;37.858;2024-01-06T07:00:56;6.22;;;3.20;;
34673;SDS011;20879;55.668;37.858;2024-01-06T07:06:05;8.25;;;4.07;;
34673;SDS011;20879;55.668;37.858;2024-01-06T07:11:12;10.30;;;4.25;;
34673;SDS011;20879;55.668;37.858;2024-01-06T07:16:20;10.82;;;4.43;;
34673;SDS011;20879;55.668;37.858;2024-01-06T07:21:30;11.35;;;4.10;;
34673;SDS011;20879;55.668;37.858;2024-01-06T07:26:40;8.98;;;3.70;;
34673;SDS011;20879;55.668;37.858;2024-01-06T07:31:45;12.35;;;4.95;;
34673;SDS011;20879;55.668;37.858;2024-01-06T07:36:58;10.32;;;4.70;;
34673;SDS011;20879;55.668;37.858;2024-01-06T07:42:07;12.43;;;5.50;;
34673;SDS011;20879;55.668;37.858;2024-01-06T07:47:14;13.45;;;5.40;;
34673;SDS011;20879;55.668;37.858;2024-01-06T07:52:27;13.45;;;6.00;;
34673;SDS011;20879;55.668;37.858;2024-01-06T07:57:41;16.85;;;5.60;;
34673;SDS011;20879;55.668;37.858;2024-01-06T08:02:52;11.13;;;4.20;;
34673;SDS011;20879;55.668;37.858;2024-01-06T08:08:11;15.95;;;6.35;;
34673;SDS011;20879;55.668;37.858;2024-01-06T08:13:25;11.95;;;4.53;;
34673;SDS011;20879;55.668;37.858;2024-01-06T08:18:39;14.25;;;5.80;;
34673;SDS011;20879;55.668;37.858;2024-01-06T08:23:49;13.73;;;6.85;;
34673;SDS011;20879;55.668;37.858;2024-01-06T08:28:54;14.60;;;6.53;;
34673;SDS011;20879;55.668;37.858;2024-01-06T08:34:05;14.80;;;6.43;;
34673;SDS011;20879;55.668;37.858;2024-01-06T08:39:14;14.35;;;6.45;;
34673;SDS011;20879;55.668;37.858;2024-01-06T08:44:26;20.88;;;6.55;;
34673;SDS011;20879;55.668;37.858;2024-01-06T08:49:32;14.45;;;6.00;;
34673;SDS011;20879;55.668;37.858;2024-01-06T08:54:46;16.42;;;6.90;;
34673;SDS011;20879;55.668;37.858;2024-01-06T08:59:54;18.17;;;6.45;;
34673;SDS011;20879;55.668;37.858;2024-01-06T09:05:02;17.10;;;6.68;;
34673;SDS011;20879;55.668;37.858;2024-01-06T09:10:14;16.85;;;6.60;;
34673;SDS011;20879;55.668;37.858;2024-01-06T09:15:19;15.32;;;6.68;;
34673;SDS011;20879;55.668;37.858;2024-01-06T09:20:24;17.05;;;6.75;;
34673;SDS011;20879;55.668;37.858;2024-01-06T09:25:48;17.10;;;7.23;;
34673;SDS011;20879;55.668;37.858;2024-01-06T09:31:05;21.38;;;7.05;;
34673;SDS011;20879;55.668;37.858;2024-01-06T09:42:06;18.33;;;7.68;;
34673;SDS011;20879;55.668;37.858;2024-01-06T09:47:24;21.83;;;7.60;;
34673;SDS011;20879;55.668;37.858;2024-01-06T09:52:36;16.02;;;7.18;;
34673;SDS011;20879;55.668;37.858;2024-01-06T09:57:52;23.30;;;7.25;;
34673;SDS011;20879;55.668;37.858;2024-01-06T10:03:07;12.65;;;5.97;;
34673;SDS011;20879;55.668;37.858;2024-01-06T10:08:12;23.58;;;8.45;;
34673;SDS011;20879;55.668;37.858;2024-01-06T10:13:21;16.02;;;6.93;;
34673;SDS011;20879;55.668;37.858;2024-01-06T10:18:27;17.15;;;6.25;;
34673;SDS011;20879;55.668;37.858;2024-01-06T10:23:35;16.95;;;8.05;;
34673;SDS011;20879;55.668;37.858;2024-01-06T10:28:51;19.63;;;7.78;;
34673;SDS011;20879;55.668;37.858;2024-01-06T10:39:08;17.07;;;7.93;;
34673;SDS011;20879;55.668;37.858;2024-01-06T10:44:21;16.00;;;7.72;;
34673;SDS011;20879;55.668;37.858;2024-01-06T10:49:35;20.05;;;7.80;;
34673;SDS011;20879;55.668;37.858;2024-01-06T10:54:44;15.38;;;6.80;;
34673;SDS011;20879;55.668;37.858;2024-01-06T10:59:55;19.75;;;8.20;;
34673;SDS011;20879;55.668;37.858;2024-01-06T11:10:17;19.35;;;7.70;;
34673;SDS011;20879;55.668;37.858;2024-01-06T11:15:41;19.13;;;8.43;;
34673;SDS011;20879;55.668;37.858;2024-01-06T11:26:24;19.85;;;8.82;;
34673;SDS011;20879;55.668;37.858;2024-01-06T11:31:39;23.23;;;9.95;;
34673;SDS011;20879;55.668;37.858;2024-01-06T11:36:46;21.60;;;10.48;;
34673;SDS011;20879;55.668;37.858;2024-01-06T11:41:53;19.08;;;8.93;;
34673;SDS011;20879;55.668;37.858;2024-01-06T11:47:06;19.33;;;7.50;;
34673;SDS011;20879;55.668;37.858;2024-01-06T11:52:19;14.63;;;4.88;;
34673;SDS011;20879;55.668;37.858;2024-01-06T11:57:38;17.60;;;7.28;;
34673;SDS011;20879;55.668;37.858;2024-01-06T12:02:52;16.02;;;6.57;;
34673;SDS011;20879;55.668;37.858;2024-01-06T12:13:27;19.13;;;7.45;;
34673;SDS011;20879;55.668;37.858;2024-01-06T12:18:35;20.60;;;8.95;;
34673;SDS011;20879;55.668;37.858;2024-01-06T12:23:43;23.23;;;6.75;;
34673;SDS011;20879;55.668;37.858;2024-01-06T12:28:50;19.85;;;8.27;;
34673;SDS011;20879;55.668;37.858;2024-01-06T12:34:00;17.27;;;7.90;;
34673;SDS011;20879;55.668;37.858;2024-01-06T12:49:22;28.48;;;11.52;;
34673;SDS011;20879;55.668;37.858;2024-01-06T12:54:44;25.13;;;9.15;;
34673;SDS011;20879;55.668;37.858;2024-01-06T12:59:50;20.20;;;8.20;;
34673;SDS011;20879;55.668;37.858;2024-01-06T13:05:03;20.65;;;8.45;;
34673;SDS011;20879;55.668;37.858;2024-01-06T13:10:10;22.55;;;10.30;;
34673;SDS011;20879;55.668;37.858;2024-01-06T13:15:26;21.23;;;9.32;;
34673;SDS011;20879;55.668;37.858;2024-01-06T13:20:36;20.98;;;8.82;;
34673;SDS011;20879;55.668;37.858;2024-01-06T13:25:42;22.67;;;8.85;;
34673;SDS011;20879;55.668;37.858;2024-01-06T13:31:00;23.77;;;8.75;;
34673;SDS011;20879;55.668;37.858;2024-01-06T13:36:09;20.38;;;8.40;;
34673;SDS011;20879;55.668;37.858;2024-01-06T13:41:16;20.25;;;8.52;;
34673;SDS011;20879;55.668;37.858;2024-01-06T13:46:28;20.17;;;8.05;;
34673;SDS011;20879;55.668;37.858;2024-01-06T13:51:40;22.33;;;7.60;;
34673;SDS011;20879;55.668;37.858;2024-01-06T13:56:53;18.42;;;8.55;;
34673;SDS011;20879;55.668;37.858;2024-01-06T14:02:01;16.83;;;7.95;;
34673;SDS011;20879;55.668;37.858;2024-01-06T14:07:14;22.15;;;8.27;;
34673;SDS011;20879;55.668;37.858;2024-01-06T14:12:34;17.13;;;7.35;;
34673;SDS011;20879;55.668;37.858;2024-01-06T14:17:39;25.55;;;9.65;;
34673;SDS011;20879;55.668;37.858;2024-01-06T14:22:53;26.05;;;7.85;;
34673;SDS011;20879;55.668;37.858;2024-01-06T14:28:01;18.85;;;7.65;;
34673;SDS011;20879;55.668;37.858;2024-01-06T14:33:11;18.77;;;8.73;;
34673;SDS011;20879;55.668;37.858;2024-01-06T14:38:19;19.98;;;7.65;;
34673;SDS011;20879;55.668;37.858;2024-01-06T14:43:30;15.73;;;6.53;;
34673;SDS011;20879;55.668;37.858;2024-01-06T14:48:44;23.35;;;10.25;;
34673;SDS011;20879;55.668;37.858;2024-01-06T14:54:05;17.55;;;7.72;;
34673;SDS011;20879;55.668;37.858;2024-01-06T14:59:15;17.03;;;8.33;;
34673;SDS011;20879;55.668;37.858;2024-01-06T15:04:27;24.92;;;8.93;;
34673;SDS011;20879;55.668;37.858;2024-01-06T15:09:41;12.88;;;5.50;;
34673;SDS011;20879;55.668;37.858;2024-01-06T15:14:51;30.20;;;11.88;;
34673;SDS011;20879;55.668;37.858;2024-01-06T15:20:06;25.10;;;11.02;;
34673;SDS011;20879;55.668;37.858;2024-01-06T15:25:35;19.77;;;8.38;;
34673;SDS011;20879;55.668;37.858;2024-01-06T15:30:44;26.15;;;11.52;;
34673;SDS011;20879;55.668;37.858;2024-01-06T15:35:53;20.67;;;8.50;;
34673;SDS011;20879;55.668;37.858;2024-01-06T15:41:08;27.70;;;11.40;;
34673;SDS011;20879;55.668;37.858;2024-01-06T15:46:13;21.33;;;9.52;;
34673;SDS011;20879;55.668;37.858;2024-01-06T15:51:19;21.48;;;9.82;;
34673;SDS011;20879;55.668;37.858;2024-01-06T15:56:28;14.88;;;6.75;;
34673;SDS011;20879;55.668;37.858;2024-01-06T16:01:41;25.67;;;11.90;;
34673;SDS011;20879;55.668;37.858;2024-01-06T16:06:48;36.05;;;15.23;;
34673;SDS011;20879;55.668;37.858;2024-01-06T16:12:02;16.70;;;7.72;;
34673;SDS011;20879;55.668;37.858;2024-01-06T16:17:11;27.50;;;10.85;;
34673;SDS011;20879;55.668;37.858;2024-01-06T16:22:16;29.27;;;13.98;;
34673;SDS011;20879;55.668;37.858;2024-01-06T16:27:29;26.45;;;9.63;;
34673;SDS011;20879;55.668;37.858;2024-01-06T16:32:34;27.17;;;12.82;;
34673;SDS011;20879;55.668;37.858;2024-01-06T16:37:47;32.28;;;14.20;;
34673;SDS011;20879;55.668;37.858;2024-01-06T16:43:03;23.38;;;10.50;;
34673;SDS011;20879;55.668;37.858;2024-01-06T16:48:09;36.80;;;16.85;;
34673;SDS011;20879;55.668;37.858;2024-01-06T16:53:17;19.80;;;8.05;;
34673;SDS011;20879;55.668;37.858;2024-01-06T16:58:26;30.58;;;14.48;;
34673;SDS011;20879;55.668;37.858;2024-01-06T17:03:34;16.83;;;7.63;;
34673;SDS011;20879;55.668;37.858;2024-01-06T17:08:49;36.97;;;15.38;;
34673;SDS011;20879;55.668;37.858;2024-01-06T17:13:56;33.90;;;15.55;;
34673;SDS011;20879;55.668;37.858;2024-01-06T17:19:08;24.58;;;9.70;;
34673;SDS011;20879;55.668;37.858;2024-01-06T17:24:21;32.97;;;15.50;;
34673;SDS011;20879;55.668;37.858;2024-01-06T17:29:38;32.78;;;15.00;;
34673;SDS011;20879;55.668;37.858;2024-01-06T17:34:46;24.67;;;10.63;;
34673;SDS011;20879;55.668;37.858;2024-01-06T17:39:52;3.17;;;1.65;;
34673;SDS011;20879;55.668;37.858;2024-01-06T17:45:02;3.33;;;1.98;;
34673;SDS011;20879;55.668;37.858;2024-01-06T17:50:20;6.45;;;2.83;;
34673;SDS011;20879;55.668;37.858;2024-01-06T17:55:26;3.90;;;1.95;;
34673;SDS011;20879;55.668;37.858;2024-01-06T18:00:40;11.63;;;5.32;;
34673;SDS011;20879;55.668;37.858;2024-01-06T18:05:46;4.55;;;2.25;;
34673;SDS011;20879;55.668;37.858;2024-01-06T18:10:59;10.35;;;5.53;;
34673;SDS011;20879;55.668;37.858;2024-01-06T18:16:16;2.08;;;1.98;;
34673;SDS011;20879;55.668;37.858;2024-01-06T18:21:21;1.80;;;1.52;;
34673;SDS011;20879;55.668;37.858;2024-01-06T18:26:31;10.95;;;6.07;;
34673;SDS011;20879;55.668;37.858;2024-01-06T18:31:39;2.55;;;1.83;;
34673;SDS011;20879;55.668;37.858;2024-01-06T18:36:57;16.05;;;5.22;;
34673;SDS011;20879;55.668;37.858;2024-01-06T18:42:02;9.38;;;4.70;;
34673;SDS011;20879;55.668;37.858;2024-01-06T18:47:19;6.35;;;3.97;;
34673;SDS011;20879;55.668;37.858;2024-01-06T18:52:27;1.92;;;1.25;;
34673;SDS011;20879;55.668;37.858;2024-01-06T18:57:34;3.72;;;2.40;;
34673;SDS011;20879;55.668;37.858;2024-01-06T19:02:46;2.50;;;1.23;;
34673;SDS011;20879;55.668;37.858;2024-01-06T19:07:54;2.60;;;1.30;;
34673;SDS011;20879;55.668;37.858;2024-01-06T19:13:09;1.23;;;1.15;;
34673;SDS011;20879;55.668;37.858;2024-01-06T19:18:27;0.63;;;0.63;;
34673;SDS011;20879;55.668;37.858;2024-01-06T19:23:35;0.73;;;0.63;;
34673;SDS011;20879;55.668;37.858;2024-01-06T19:28:40;1.17;;;0.77;;
34673;SDS011;20879;55.668;37.858;2024-01-06T19:33:56;0.23;;;0.23;;
34673;SDS011;20879;55.668;37.858;2024-01-06T19:39:04;1.50;;;1.38;;
34673;SDS011;20879;55.668;37.858;2024-01-06T19:44:13;6.72;;;3.17;;
34673;SDS011;20879;55.668;37.858;2024-01-06T19:49:21;5.68;;;2.78;;
34673;SDS011;20879;55.668;37.858;2024-01-06T19:54:29;13.40;;;4.60;;
34673;SDS011;20879;55.668;37.858;2024-01-06T19:59:48;1.50;;;0.73;;
34673;SDS011;20879;55.668;37.858;2024-01-06T20:05:13;2.33;;;1.33;;
34673;SDS011;20879;55.668;37.858;2024-01-06T20:10:23;1.20;;;1.10;;
34673;SDS011;20879;55.668;37.858;2024-01-06T20:15:30;0.93;;;0.93;;
34673;SDS011;20879;55.668;37.858;2024-01-06T20:20:39;0.82;;;0.82;;
34673;SDS011;20879;55.668;37.858;2024-01-06T20:25:52;1.98;;;1.58;;
34673;SDS011;20879;55.668;37.858;2024-01-06T20:30:59;0.85;;;0.85;;
34673;SDS011;20879;55.668;37.858;2024-01-06T20:36:08;0.50;;;0.50;;
34673;SDS011;20879;55.668;37.858;2024-01-06T20:41:17;0.20;;;0.20;;
34673;SDS011;20879;55.668;37.858;2024-01-06T20:46:30;1.35;;;1.17;;
34673;SDS011;20879;55.668;37.858;2024-01-06T20:51:41;1.00;;;1.00;;
34673;SDS011;20879;55.668;37.858;2024-01-06T20:56:53;1.20;;;0.90;;
34673;SDS011;20879;55.668;37.858;2024-01-06T21:02:00;1.08;;;0.77;;
34673;SDS011;20879;55.668;37.858;2024-01-06T21:07:19;2.58;;;1.65;;
34673;SDS011;20879;55.668;37.858;2024-01-06T21:12:33;1.08;;;0.85;;
34673;SDS011;20879;55.668;37.858;2024-01-06T21:17:51;2.23;;;1.03;;
34673;SDS011;20879;55.668;37.858;2024-01-06T21:23:02;2.65;;;2.08;;
34673;SDS011;20879;55.668;37.858;2024-01-06T21:28:11;0.90;;;0.90;;
34673;SDS011;20879;55.668;37.858;2024-01-06T21:33:19;0.47;;;0.47;;
34673;SDS011;20879;55.668;37.858;2024-01-06T21:38:28;1.13;;;1.13;;
34673;SDS011;20879;55.668;37.858;2024-01-06T21:43:44;0.30;;;0.30;;
34673;SDS011;20879;55.668;37.858;2024-01-06T21:49:00;3.58;;;1.33;;
34673;SDS011;20879;55.668;37.858;2024-01-06T21:54:08;7.78;;;3.53;;
34673;SDS011;20879;55.668;37.858;2024-01-06T21:59:16;8.82;;;3.85;;
34673;SDS011;20879;55.668;37.858;2024-01-06T22:04:39;16.38;;;2.85;;
34673;SDS011;20879;55.668;37.858;2024-01-06T22:09:47;0.82;;;0.82;;
34673;SDS011;20879;55.668;37.858;2024-01-06T22:14:55;14.00;;;6.43;;
34673;SDS011;20879;55.668;37.858;2024-01-06T22:20:15;13.38;;;5.13;;
34673;SDS011;20879;55.668;37.858;2024-01-06T22:25:23;7.07;;;3.15;;
34673;SDS011;20879;55.668;37.858;2024-01-06T22:30:34;0.60;;;0.60;;
34673;SDS011;20879;55.668;37.858;2024-01-06T22:35:54;4.05;;;1.88;;
34673;SDS011;20879;55.668;37.858;2024-01-06T22:41:03;0.40;;;0.40;;
34673;SDS011;20879;55.668;37.858;2024-01-06T22:46:10;0.20;;;0.20;;
34673;SDS011;20879;55.668;37.858;2024-01-06T22:51:21;6.03;;;2.45;;
34673;SDS011;20879;55.668;37.858;2024-01-06T22:56:28;0.82;;;0.75;;
34673;SDS011;20879;55.668;37.858;2024-01-06T23:01:36;0.70;;;0.52;;
34673;SDS011;20879;55.668;37.858;2024-01-06T23:06:43;12.05;;;4.40;;
34673;SDS011;20879;55.668;37.858;2024-01-06T23:12:00;2.50;;;2.03;;
34673;SDS011;20879;55.668;37.858;2024-01-06T23:17:07;1.00;;;0.88;;
34673;SDS011;20879;55.668;37.858;2024-01-06T23:22:18;0.40;;;0.40;;
34673;SDS011;20879;55.668;37.858;2024-01-06T23:27:34;2.20;;;1.13;;
34673;SDS011;20879;55.668;37.858;2024-01-06T23:32:43;0.63;;;0.30;;
34673;SDS011;20879;55.668;37.858;2024-01-06T23:37:55;0.30;;;0.30;;
34673;SDS011;20879;55.668;37.858;2024-01-06T23:43:07;0.40;;;0.40;;
34673;SDS011;20879;55.668;37.858;2024-01-06T23:48:20;0.28;;;0.28;;
34673;SDS011;20879;55.668;37.858;2024-01-06T23:53:35;0.73;;;0.73;;
34673;SDS011;20879;55.668;37.858;2024-01-06T23:58:44;1.20;;;1.13;;
